sensor_id;sensor_type;location;lat;lon;timestamp;P1;durP1;ratioP1;P2;durP2;ratioP2
37527;SDS011;23372;52.050;4.810;2023-02-18T00:02:01;68.50;;;29.87;;
37527;SDS011;23372;52.050;4.810;2023-02-18T00:04:28;66.00;;;28.50;;
37527;SDS011;23372;52.050;4.810;2023-02-18T00:06:53;77.87;;;30.40;;
37527;SDS011;23372;52.050;4.810;2023-02-18T00:09:19;74.30;;;32.50;;
37527;SDS011;23372;52.050;4.810;2023-02-18T00:11:44;81.17;;;33.33;;
37527;SDS011;23372;52.050;4.810;2023-02-18T00:14:11;81.70;;;32.87;;
37527;SDS011;23372;52.050;4.810;2023-02-18T00:16:38;89.57;;;35.03;;
37527;SDS011;23372;52.050;4.810;2023-02-18T00:19:05;84.43;;;34.70;;
37527;SDS011;23372;52.050;4.810;2023-02-18T00:21:33;85.80;;;31.67;;
37527;SDS011;23372;52.050;4.810;2023-02-18T00:23:59;77.20;;;31.40;;
37527;SDS011;23372;52.050;4.810;2023-02-18T00:26:25;84.93;;;30.23;;
37527;SDS011;23372;52.050;4.810;2023-02-18T00:28:51;88.90;;;31.97;;
37527;SDS011;23372;52.050;4.810;2023-02-18T00:31:19;84.40;;;33.13;;
37527;SDS011;23372;52.050;4.810;2023-02-18T00:33:49;81.70;;;30.97;;
37527;SDS011;23372;52.050;4.810;2023-02-18T00:36:15;83.73;;;30.03;;
37527;SDS011;23372;52.050;4.810;2023-02-18T00:38:43;85.27;;;30.90;;
37527;SDS011;23372;52.050;4.810;2023-02-18T00:41:14;84.93;;;31.37;;
37527;SDS011;23372;52.050;4.810;2023-02-18T00:43:40;80.80;;;31.37;;
37527;SDS011;23372;52.050;4.810;2023-02-18T00:46:06;83.80;;;30.40;;
37527;SDS011;23372;52.050;4.810;2023-02-18T00:48:32;81.17;;;33.07;;
37527;SDS011;23372;52.050;4.810;2023-02-18T00:50:58;68.57;;;29.27;;
37527;SDS011;23372;52.050;4.810;2023-02-18T00:53:25;78.10;;;30.13;;
37527;SDS011;23372;52.050;4.810;2023-02-18T00:55:51;84.60;;;29.47;;
37527;SDS011;23372;52.050;4.810;2023-02-18T00:58:17;90.70;;;31.03;;
37527;SDS011;23372;52.050;4.810;2023-02-18T01:00:43;77.60;;;29.17;;
37527;SDS011;23372;52.050;4.810;2023-02-18T01:03:09;77.43;;;29.33;;
37527;SDS011;23372;52.050;4.810;2023-02-18T01:05:35;89.13;;;33.63;;
37527;SDS011;23372;52.050;4.810;2023-02-18T01:08:02;80.40;;;31.80;;
37527;SDS011;23372;52.050;4.810;2023-02-18T01:10:29;78.90;;;32.03;;
37527;SDS011;23372;52.050;4.810;2023-02-18T01:12:55;84.73;;;30.70;;
37527;SDS011;23372;52.050;4.810;2023-02-18T01:15:21;83.07;;;31.37;;
37527;SDS011;23372;52.050;4.810;2023-02-18T01:17:47;87.93;;;34.70;;
37527;SDS011;23372;52.050;4.810;2023-02-18T01:20:13;90.63;;;32.00;;
37527;SDS011;23372;52.050;4.810;2023-02-18T01:22:39;89.57;;;33.00;;
37527;SDS011;23372;52.050;4.810;2023-02-18T01:25:06;84.53;;;31.67;;
37527;SDS011;23372;52.050;4.810;2023-02-18T01:27:33;90.43;;;33.77;;
37527;SDS011;23372;52.050;4.810;2023-02-18T01:29:58;94.13;;;37.53;;
37527;SDS011;23372;52.050;4.810;2023-02-18T01:32:24;100.43;;;36.80;;
37527;SDS011;23372;52.050;4.810;2023-02-18T01:34:49;80.00;;;32.70;;
37527;SDS011;23372;52.050;4.810;2023-02-18T01:37:15;87.27;;;32.57;;
37527;SDS011;23372;52.050;4.810;2023-02-18T01:39:40;90.90;;;33.23;;
37527;SDS011;23372;52.050;4.810;2023-02-18T01:42:11;91.47;;;35.90;;
37527;SDS011;23372;52.050;4.810;2023-02-18T01:44:45;90.50;;;35.80;;
37527;SDS011;23372;52.050;4.810;2023-02-18T01:47:12;92.83;;;35.03;;
37527;SDS011;23372;52.050;4.810;2023-02-18T01:49:38;90.87;;;36.90;;
37527;SDS011;23372;52.050;4.810;2023-02-18T01:52:06;91.77;;;35.40;;
37527;SDS011;23372;52.050;4.810;2023-02-18T01:54:38;95.23;;;36.40;;
37527;SDS011;23372;52.050;4.810;2023-02-18T01:57:17;89.07;;;35.37;;
37527;SDS011;23372;52.050;4.810;2023-02-18T02:02:14;93.90;;;36.00;;
37527;SDS011;23372;52.050;4.810;2023-02-18T02:04:43;92.27;;;39.07;;
37527;SDS011;23372;52.050;4.810;2023-02-18T02:07:09;93.53;;;36.77;;
37527;SDS011;23372;52.050;4.810;2023-02-18T02:09:35;98.33;;;38.00;;
37527;SDS011;23372;52.050;4.810;2023-02-18T02:15:15;92.23;;;39.63;;
37527;SDS011;23372;52.050;4.810;2023-02-18T02:28:58;94.70;;;37.63;;
37527;SDS011;23372;52.050;4.810;2023-02-18T02:31:46;98.17;;;37.93;;
37527;SDS011;23372;52.050;4.810;2023-02-18T02:40:01;83.67;;;33.90;;
37527;SDS011;23372;52.050;4.810;2023-02-18T02:43:03;86.43;;;34.77;;
37527;SDS011;23372;52.050;4.810;2023-02-18T02:48:41;100.20;;;34.33;;
37527;SDS011;23372;52.050;4.810;2023-02-18T02:51:17;95.10;;;36.47;;
37527;SDS011;23372;52.050;4.810;2023-02-18T02:54:09;93.77;;;33.33;;
37527;SDS011;23372;52.050;4.810;2023-02-18T02:56:46;84.37;;;34.73;;
37527;SDS011;23372;52.050;4.810;2023-02-18T02:59:14;86.03;;;34.70;;
37527;SDS011;23372;52.050;4.810;2023-02-18T03:01:52;86.83;;;31.70;;
37527;SDS011;23372;52.050;4.810;2023-02-18T03:04:44;75.53;;;28.33;;
37527;SDS011;23372;52.050;4.810;2023-02-18T03:10:29;49.57;;;18.10;;
37527;SDS011;23372;52.050;4.810;2023-02-18T03:13:32;44.67;;;17.57;;
37527;SDS011;23372;52.050;4.810;2023-02-18T03:16:00;40.00;;;16.33;;
37527;SDS011;23372;52.050;4.810;2023-02-18T03:18:40;28.10;;;12.40;;
37527;SDS011;23372;52.050;4.810;2023-02-18T03:23:59;32.00;;;11.80;;
37527;SDS011;23372;52.050;4.810;2023-02-18T03:26:30;23.93;;;9.63;;
37527;SDS011;23372;52.050;4.810;2023-02-18T03:29:02;22.57;;;9.37;;
37527;SDS011;23372;52.050;4.810;2023-02-18T03:31:29;22.57;;;9.10;;
37527;SDS011;23372;52.050;4.810;2023-02-18T03:34:01;18.13;;;8.00;;
37527;SDS011;23372;52.050;4.810;2023-02-18T03:36:42;17.50;;;7.60;;
37527;SDS011;23372;52.050;4.810;2023-02-18T03:39:15;17.20;;;8.10;;
37527;SDS011;23372;52.050;4.810;2023-02-18T03:41:42;16.27;;;7.40;;
37527;SDS011;23372;52.050;4.810;2023-02-18T03:44:09;17.87;;;8.40;;
37527;SDS011;23372;52.050;4.810;2023-02-18T03:46:35;19.80;;;8.67;;
37527;SDS011;23372;52.050;4.810;2023-02-18T03:49:03;19.23;;;9.80;;
37527;SDS011;23372;52.050;4.810;2023-02-18T03:51:29;19.53;;;9.30;;
37527;SDS011;23372;52.050;4.810;2023-02-18T03:53:54;24.97;;;10.23;;
37527;SDS011;23372;52.050;4.810;2023-02-18T03:56:20;23.07;;;10.67;;
37527;SDS011;23372;52.050;4.810;2023-02-18T03:58:46;20.20;;;10.47;;
37527;SDS011;23372;52.050;4.810;2023-02-18T04:01:12;26.37;;;11.00;;
37527;SDS011;23372;52.050;4.810;2023-02-18T04:03:38;22.37;;;11.87;;
37527;SDS011;23372;52.050;4.810;2023-02-18T04:06:03;23.03;;;12.33;;
37527;SDS011;23372;52.050;4.810;2023-02-18T04:08:29;22.00;;;12.73;;
37527;SDS011;23372;52.050;4.810;2023-02-18T04:10:54;26.13;;;12.77;;
37527;SDS011;23372;52.050;4.810;2023-02-18T04:13:20;21.67;;;12.87;;
37527;SDS011;23372;52.050;4.810;2023-02-18T04:15:47;24.80;;;12.97;;
37527;SDS011;23372;52.050;4.810;2023-02-18T04:18:14;23.43;;;12.90;;
37527;SDS011;23372;52.050;4.810;2023-02-18T04:20:39;26.07;;;14.20;;
37527;SDS011;23372;52.050;4.810;2023-02-18T04:23:05;23.50;;;13.27;;
37527;SDS011;23372;52.050;4.810;2023-02-18T04:25:31;26.80;;;12.80;;
37527;SDS011;23372;52.050;4.810;2023-02-18T04:27:56;19.83;;;13.27;;
37527;SDS011;23372;52.050;4.810;2023-02-18T04:30:22;24.50;;;12.37;;
37527;SDS011;23372;52.050;4.810;2023-02-18T04:32:47;22.50;;;12.43;;
37527;SDS011;23372;52.050;4.810;2023-02-18T04:35:13;21.90;;;11.70;;
37527;SDS011;23372;52.050;4.810;2023-02-18T04:37:38;19.40;;;12.50;;
37527;SDS011;23372;52.050;4.810;2023-02-18T04:40:04;21.47;;;12.40;;
37527;SDS011;23372;52.050;4.810;2023-02-18T04:42:31;22.73;;;12.03;;
37527;SDS011;23372;52.050;4.810;2023-02-18T04:44:56;21.90;;;12.27;;
37527;SDS011;23372;52.050;4.810;2023-02-18T04:47:22;29.97;;;14.90;;
37527;SDS011;23372;52.050;4.810;2023-02-18T04:49:47;31.53;;;16.83;;
37527;SDS011;23372;52.050;4.810;2023-02-18T04:52:13;37.43;;;17.43;;
37527;SDS011;23372;52.050;4.810;2023-02-18T04:54:38;38.70;;;16.27;;
37527;SDS011;23372;52.050;4.810;2023-02-18T04:57:04;34.10;;;16.80;;
37527;SDS011;23372;52.050;4.810;2023-02-18T04:59:30;36.53;;;17.43;;
37527;SDS011;23372;52.050;4.810;2023-02-18T05:01:55;36.07;;;18.17;;
37527;SDS011;23372;52.050;4.810;2023-02-18T05:04:21;44.77;;;17.90;;
37527;SDS011;23372;52.050;4.810;2023-02-18T05:06:47;41.37;;;19.43;;
37527;SDS011;23372;52.050;4.810;2023-02-18T05:09:13;47.30;;;19.57;;
37527;SDS011;23372;52.050;4.810;2023-02-18T05:11:38;36.63;;;17.30;;
37527;SDS011;23372;52.050;4.810;2023-02-18T05:14:04;39.40;;;19.03;;
37527;SDS011;23372;52.050;4.810;2023-02-18T05:16:30;39.17;;;18.20;;
37527;SDS011;23372;52.050;4.810;2023-02-18T05:18:55;43.80;;;18.33;;
37527;SDS011;23372;52.050;4.810;2023-02-18T05:21:21;36.27;;;17.93;;
37527;SDS011;23372;52.050;4.810;2023-02-18T05:23:46;35.93;;;17.23;;
37527;SDS011;23372;52.050;4.810;2023-02-18T05:26:12;36.20;;;17.27;;
37527;SDS011;23372;52.050;4.810;2023-02-18T05:28:37;34.83;;;18.23;;
37527;SDS011;23372;52.050;4.810;2023-02-18T05:31:03;32.53;;;17.40;;
37527;SDS011;23372;52.050;4.810;2023-02-18T05:33:29;31.53;;;16.67;;
37527;SDS011;23372;52.050;4.810;2023-02-18T05:35:54;27.33;;;15.00;;
37527;SDS011;23372;52.050;4.810;2023-02-18T05:38:20;31.23;;;15.77;;
37527;SDS011;23372;52.050;4.810;2023-02-18T05:40:46;34.83;;;16.17;;
37527;SDS011;23372;52.050;4.810;2023-02-18T05:43:12;30.70;;;15.47;;
37527;SDS011;23372;52.050;4.810;2023-02-18T05:45:38;32.90;;;15.80;;
37527;SDS011;23372;52.050;4.810;2023-02-18T05:48:03;27.87;;;14.97;;
37527;SDS011;23372;52.050;4.810;2023-02-18T05:50:29;29.37;;;14.37;;
37527;SDS011;23372;52.050;4.810;2023-02-18T05:52:55;33.17;;;15.77;;
37527;SDS011;23372;52.050;4.810;2023-02-18T05:55:20;33.03;;;16.07;;
37527;SDS011;23372;52.050;4.810;2023-02-18T05:57:46;26.70;;;15.43;;
37527;SDS011;23372;52.050;4.810;2023-02-18T06:00:12;35.10;;;16.10;;
37527;SDS011;23372;52.050;4.810;2023-02-18T06:02:38;31.77;;;16.63;;
37527;SDS011;23372;52.050;4.810;2023-02-18T06:05:04;33.87;;;17.53;;
37527;SDS011;23372;52.050;4.810;2023-02-18T06:07:30;34.40;;;17.23;;
37527;SDS011;23372;52.050;4.810;2023-02-18T06:09:55;27.10;;;16.30;;
37527;SDS011;23372;52.050;4.810;2023-02-18T06:12:21;32.10;;;16.70;;
37527;SDS011;23372;52.050;4.810;2023-02-18T06:14:47;34.10;;;16.10;;
37527;SDS011;23372;52.050;4.810;2023-02-18T06:17:13;31.43;;;16.30;;
37527;SDS011;23372;52.050;4.810;2023-02-18T06:19:39;28.33;;;14.87;;
37527;SDS011;23372;52.050;4.810;2023-02-18T06:22:05;37.27;;;15.43;;
37527;SDS011;23372;52.050;4.810;2023-02-18T06:24:31;35.40;;;15.70;;
37527;SDS011;23372;52.050;4.810;2023-02-18T06:26:57;33.17;;;16.13;;
37527;SDS011;23372;52.050;4.810;2023-02-18T06:29:22;38.00;;;15.77;;
37527;SDS011;23372;52.050;4.810;2023-02-18T06:31:48;38.03;;;14.83;;
37527;SDS011;23372;52.050;4.810;2023-02-18T06:34:14;42.17;;;16.07;;
37527;SDS011;23372;52.050;4.810;2023-02-18T06:36:40;36.00;;;13.63;;
37527;SDS011;23372;52.050;4.810;2023-02-18T06:39:06;36.17;;;14.23;;
37527;SDS011;23372;52.050;4.810;2023-02-18T06:41:32;36.37;;;12.70;;
37527;SDS011;23372;52.050;4.810;2023-02-18T06:43:58;31.90;;;12.90;;
37527;SDS011;23372;52.050;4.810;2023-02-18T06:46:23;33.50;;;12.80;;
37527;SDS011;23372;52.050;4.810;2023-02-18T06:48:49;33.43;;;13.30;;
37527;SDS011;23372;52.050;4.810;2023-02-18T06:51:14;33.60;;;12.93;;
37527;SDS011;23372;52.050;4.810;2023-02-18T06:53:40;35.00;;;12.43;;
37527;SDS011;23372;52.050;4.810;2023-02-18T06:56:07;31.73;;;13.73;;
37527;SDS011;23372;52.050;4.810;2023-02-18T06:58:34;30.00;;;13.10;;
37527;SDS011;23372;52.050;4.810;2023-02-18T07:00:59;29.60;;;11.73;;
37527;SDS011;23372;52.050;4.810;2023-02-18T07:03:25;34.13;;;11.10;;
37527;SDS011;23372;52.050;4.810;2023-02-18T07:05:51;30.43;;;11.30;;
37527;SDS011;23372;52.050;4.810;2023-02-18T07:08:17;25.83;;;9.30;;
37527;SDS011;23372;52.050;4.810;2023-02-18T07:10:42;29.67;;;8.70;;
37527;SDS011;23372;52.050;4.810;2023-02-18T07:13:08;24.80;;;7.80;;
37527;SDS011;23372;52.050;4.810;2023-02-18T07:15:34;26.97;;;7.67;;
37527;SDS011;23372;52.050;4.810;2023-02-18T07:18:00;29.80;;;5.97;;
37527;SDS011;23372;52.050;4.810;2023-02-18T07:20:25;26.03;;;7.20;;
37527;SDS011;23372;52.050;4.810;2023-02-18T07:22:52;28.10;;;7.30;;
37527;SDS011;23372;52.050;4.810;2023-02-18T07:25:18;21.10;;;5.20;;
37527;SDS011;23372;52.050;4.810;2023-02-18T07:27:43;21.50;;;5.60;;
37527;SDS011;23372;52.050;4.810;2023-02-18T07:30:09;29.97;;;4.20;;
37527;SDS011;23372;52.050;4.810;2023-02-18T07:32:35;14.03;;;4.50;;
37527;SDS011;23372;52.050;4.810;2023-02-18T07:35:01;24.37;;;4.07;;
37527;SDS011;23372;52.050;4.810;2023-02-18T07:37:28;17.00;;;3.83;;
37527;SDS011;23372;52.050;4.810;2023-02-18T07:39:54;24.40;;;4.30;;
37527;SDS011;23372;52.050;4.810;2023-02-18T07:42:19;22.83;;;4.00;;
37527;SDS011;23372;52.050;4.810;2023-02-18T07:44:45;23.57;;;3.67;;
37527;SDS011;23372;52.050;4.810;2023-02-18T07:47:13;23.07;;;3.03;;
37527;SDS011;23372;52.050;4.810;2023-02-18T07:49:41;16.97;;;3.07;;
37527;SDS011;23372;52.050;4.810;2023-02-18T07:52:06;27.67;;;3.50;;
37527;SDS011;23372;52.050;4.810;2023-02-18T07:54:32;12.67;;;2.40;;
37527;SDS011;23372;52.050;4.810;2023-02-18T07:56:58;22.23;;;3.20;;
37527;SDS011;23372;52.050;4.810;2023-02-18T07:59:24;16.43;;;2.57;;
37527;SDS011;23372;52.050;4.810;2023-02-18T08:01:50;18.00;;;3.30;;
37527;SDS011;23372;52.050;4.810;2023-02-18T08:04:15;14.60;;;3.83;;
37527;SDS011;23372;52.050;4.810;2023-02-18T08:06:42;17.93;;;3.33;;
37527;SDS011;23372;52.050;4.810;2023-02-18T08:09:10;23.70;;;3.53;;
37527;SDS011;23372;52.050;4.810;2023-02-18T08:11:36;19.87;;;3.80;;
37527;SDS011;23372;52.050;4.810;2023-02-18T08:14:03;17.87;;;3.23;;
37527;SDS011;23372;52.050;4.810;2023-02-18T08:16:28;14.53;;;3.00;;
37527;SDS011;23372;52.050;4.810;2023-02-18T08:18:54;14.47;;;2.70;;
37527;SDS011;23372;52.050;4.810;2023-02-18T08:21:21;25.70;;;5.43;;
37527;SDS011;23372;52.050;4.810;2023-02-18T08:23:47;24.33;;;3.67;;
37527;SDS011;23372;52.050;4.810;2023-02-18T08:26:14;12.03;;;3.27;;
37527;SDS011;23372;52.050;4.810;2023-02-18T08:28:40;20.03;;;2.50;;
37527;SDS011;23372;52.050;4.810;2023-02-18T08:31:06;14.23;;;3.50;;
37527;SDS011;23372;52.050;4.810;2023-02-18T08:33:39;20.87;;;2.90;;
37527;SDS011;23372;52.050;4.810;2023-02-18T08:36:06;14.47;;;2.93;;
37527;SDS011;23372;52.050;4.810;2023-02-18T08:38:32;14.97;;;2.33;;
37527;SDS011;23372;52.050;4.810;2023-02-18T08:41:04;20.50;;;3.23;;
37527;SDS011;23372;52.050;4.810;2023-02-18T08:43:30;11.73;;;2.80;;
37527;SDS011;23372;52.050;4.810;2023-02-18T08:45:57;20.30;;;3.00;;
37527;SDS011;23372;52.050;4.810;2023-02-18T08:48:23;12.33;;;2.77;;
37527;SDS011;23372;52.050;4.810;2023-02-18T08:50:48;12.53;;;2.40;;
37527;SDS011;23372;52.050;4.810;2023-02-18T08:53:14;16.77;;;3.40;;
37527;SDS011;23372;52.050;4.810;2023-02-18T08:55:40;17.90;;;2.47;;
37527;SDS011;23372;52.050;4.810;2023-02-18T08:58:06;14.90;;;2.60;;
37527;SDS011;23372;52.050;4.810;2023-02-18T09:00:32;16.63;;;3.27;;
37527;SDS011;23372;52.050;4.810;2023-02-18T09:02:58;19.43;;;3.30;;
37527;SDS011;23372;52.050;4.810;2023-02-18T09:05:24;12.93;;;2.60;;
37527;SDS011;23372;52.050;4.810;2023-02-18T09:07:49;16.53;;;3.07;;
37527;SDS011;23372;52.050;4.810;2023-02-18T09:10:15;12.10;;;2.90;;
37527;SDS011;23372;52.050;4.810;2023-02-18T09:12:40;12.10;;;2.30;;
37527;SDS011;23372;52.050;4.810;2023-02-18T09:15:06;17.83;;;2.53;;
37527;SDS011;23372;52.050;4.810;2023-02-18T09:17:32;15.33;;;2.83;;
37527;SDS011;23372;52.050;4.810;2023-02-18T09:19:58;15.03;;;2.83;;
37527;SDS011;23372;52.050;4.810;2023-02-18T09:22:23;19.90;;;4.40;;
37527;SDS011;23372;52.050;4.810;2023-02-18T09:24:49;15.23;;;2.40;;
37527;SDS011;23372;52.050;4.810;2023-02-18T09:27:15;23.40;;;2.90;;
37527;SDS011;23372;52.050;4.810;2023-02-18T09:29:40;17.10;;;3.47;;
37527;SDS011;23372;52.050;4.810;2023-02-18T09:32:06;17.33;;;3.03;;
37527;SDS011;23372;52.050;4.810;2023-02-18T09:34:33;14.40;;;2.40;;
37527;SDS011;23372;52.050;4.810;2023-02-18T09:36:59;12.40;;;3.00;;
37527;SDS011;23372;52.050;4.810;2023-02-18T09:39:24;12.13;;;2.23;;
37527;SDS011;23372;52.050;4.810;2023-02-18T09:41:51;27.43;;;4.33;;
37527;SDS011;23372;52.050;4.810;2023-02-18T09:44:26;19.23;;;3.23;;
37527;SDS011;23372;52.050;4.810;2023-02-18T09:46:58;18.03;;;2.77;;
37527;SDS011;23372;52.050;4.810;2023-02-18T09:49:30;16.73;;;3.43;;
37527;SDS011;23372;52.050;4.810;2023-02-18T09:52:04;23.07;;;3.07;;
37527;SDS011;23372;52.050;4.810;2023-02-18T09:54:42;21.10;;;3.77;;
37527;SDS011;23372;52.050;4.810;2023-02-18T09:57:17;13.13;;;2.90;;
37527;SDS011;23372;52.050;4.810;2023-02-18T09:59:59;21.73;;;4.50;;
37527;SDS011;23372;52.050;4.810;2023-02-18T10:02:29;24.67;;;3.87;;
37527;SDS011;23372;52.050;4.810;2023-02-18T10:04:55;18.73;;;3.77;;
37527;SDS011;23372;52.050;4.810;2023-02-18T10:07:23;23.50;;;3.57;;
37527;SDS011;23372;52.050;4.810;2023-02-18T10:09:53;16.23;;;3.43;;
37527;SDS011;23372;52.050;4.810;2023-02-18T10:12:22;13.37;;;3.93;;
37527;SDS011;23372;52.050;4.810;2023-02-18T10:14:53;12.43;;;3.37;;
37527;SDS011;23372;52.050;4.810;2023-02-18T10:17:21;28.00;;;4.10;;
37527;SDS011;23372;52.050;4.810;2023-02-18T10:19:49;17.23;;;3.93;;
37527;SDS011;23372;52.050;4.810;2023-02-18T10:22:16;21.47;;;3.90;;
37527;SDS011;23372;52.050;4.810;2023-02-18T10:24:47;15.97;;;3.43;;
37527;SDS011;23372;52.050;4.810;2023-02-18T10:27:24;23.47;;;3.30;;
37527;SDS011;23372;52.050;4.810;2023-02-18T10:32:48;19.03;;;3.73;;
37527;SDS011;23372;52.050;4.810;2023-02-18T10:35:30;22.53;;;3.73;;
37527;SDS011;23372;52.050;4.810;2023-02-18T10:40:56;22.43;;;4.77;;
37527;SDS011;23372;52.050;4.810;2023-02-18T10:51:30;20.23;;;3.60;;
37527;SDS011;23372;52.050;4.810;2023-02-18T10:53:58;15.37;;;3.03;;
37527;SDS011;23372;52.050;4.810;2023-02-18T10:56:36;16.13;;;3.30;;
37527;SDS011;23372;52.050;4.810;2023-02-18T11:01:43;26.93;;;4.93;;
37527;SDS011;23372;52.050;4.810;2023-02-18T11:04:15;15.90;;;3.10;;
37527;SDS011;23372;52.050;4.810;2023-02-18T11:06:45;16.53;;;2.67;;
37527;SDS011;23372;52.050;4.810;2023-02-18T11:12:04;19.10;;;3.20;;
37527;SDS011;23372;52.050;4.810;2023-02-18T11:14:40;23.47;;;3.80;;
37527;SDS011;23372;52.050;4.810;2023-02-18T11:17:21;18.07;;;3.47;;
37527;SDS011;23372;52.050;4.810;2023-02-18T11:19:58;18.10;;;3.40;;
37527;SDS011;23372;52.050;4.810;2023-02-18T11:22:30;19.17;;;3.27;;
37527;SDS011;23372;52.050;4.810;2023-02-18T11:25:01;11.30;;;2.60;;
37527;SDS011;23372;52.050;4.810;2023-02-18T11:27:43;16.30;;;4.30;;
37527;SDS011;23372;52.050;4.810;2023-02-18T11:30:20;16.60;;;3.37;;
37527;SDS011;23372;52.050;4.810;2023-02-18T11:32:47;18.33;;;3.73;;
37527;SDS011;23372;52.050;4.810;2023-02-18T11:35:20;21.63;;;4.70;;
37527;SDS011;23372;52.050;4.810;2023-02-18T11:37:49;20.30;;;3.67;;
37527;SDS011;23372;52.050;4.810;2023-02-18T11:40:27;19.83;;;4.20;;
37527;SDS011;23372;52.050;4.810;2023-02-18T11:43:06;22.00;;;3.20;;
37527;SDS011;23372;52.050;4.810;2023-02-18T11:45:37;13.47;;;3.20;;
37527;SDS011;23372;52.050;4.810;2023-02-18T11:48:45;19.87;;;3.83;;
37527;SDS011;23372;52.050;4.810;2023-02-18T11:50:52;12.37;;;2.77;;
37527;SDS011;23372;52.050;4.810;2023-02-18T11:55:59;16.70;;;3.13;;
37527;SDS011;23372;52.050;4.810;2023-02-18T11:58:27;17.80;;;2.80;;
37527;SDS011;23372;52.050;4.810;2023-02-18T12:01:11;24.27;;;3.43;;
37527;SDS011;23372;52.050;4.810;2023-02-18T12:03:58;19.93;;;3.20;;
37527;SDS011;23372;52.050;4.810;2023-02-18T12:06:36;13.67;;;2.97;;
37527;SDS011;23372;52.050;4.810;2023-02-18T12:09:04;19.10;;;3.33;;
37527;SDS011;23372;52.050;4.810;2023-02-18T12:11:52;15.60;;;2.67;;
37527;SDS011;23372;52.050;4.810;2023-02-18T12:14:23;16.77;;;3.77;;
37527;SDS011;23372;52.050;4.810;2023-02-18T12:34:07;13.40;;;3.20;;
37527;SDS011;23372;52.050;4.810;2023-02-18T12:37:21;14.00;;;2.30;;
37527;SDS011;23372;52.050;4.810;2023-02-18T12:40:02;12.40;;;2.97;;
37527;SDS011;23372;52.050;4.810;2023-02-18T12:55:51;13.10;;;2.77;;
37527;SDS011;23372;52.050;4.810;2023-02-18T13:12:53;11.87;;;2.63;;
37527;SDS011;23372;52.050;4.810;2023-02-18T13:15:50;19.97;;;3.50;;
37527;SDS011;23372;52.050;4.810;2023-02-18T13:18:23;12.17;;;2.80;;
37527;SDS011;23372;52.050;4.810;2023-02-18T13:21:05;18.37;;;3.47;;
37527;SDS011;23372;52.050;4.810;2023-02-18T13:23:34;15.33;;;2.77;;
37527;SDS011;23372;52.050;4.810;2023-02-18T13:26:04;24.90;;;2.83;;
37527;SDS011;23372;52.050;4.810;2023-02-18T13:31:16;17.73;;;3.40;;
37527;SDS011;23372;52.050;4.810;2023-02-18T13:33:57;17.53;;;2.40;;
37527;SDS011;23372;52.050;4.810;2023-02-18T13:36:33;15.00;;;2.40;;
37527;SDS011;23372;52.050;4.810;2023-02-18T13:41:32;19.07;;;2.97;;
37527;SDS011;23372;52.050;4.810;2023-02-18T13:44:00;9.37;;;2.50;;
37527;SDS011;23372;52.050;4.810;2023-02-18T13:46:25;15.17;;;3.27;;
37527;SDS011;23372;52.050;4.810;2023-02-18T13:48:53;19.60;;;2.70;;
37527;SDS011;23372;52.050;4.810;2023-02-18T13:54:33;14.20;;;2.70;;
37527;SDS011;23372;52.050;4.810;2023-02-18T13:57:15;24.70;;;4.10;;
37527;SDS011;23372;52.050;4.810;2023-02-18T13:59:49;14.27;;;3.07;;
37527;SDS011;23372;52.050;4.810;2023-02-18T14:10:25;9.87;;;3.10;;
37527;SDS011;23372;52.050;4.810;2023-02-18T14:17:48;17.23;;;5.00;;
37527;SDS011;23372;52.050;4.810;2023-02-18T14:28:42;18.90;;;2.90;;
37527;SDS011;23372;52.050;4.810;2023-02-18T14:33:55;14.43;;;2.80;;
37527;SDS011;23372;52.050;4.810;2023-02-18T14:39:25;13.33;;;3.17;;
37527;SDS011;23372;52.050;4.810;2023-02-18T14:44:41;11.40;;;3.20;;
37527;SDS011;23372;52.050;4.810;2023-02-18T14:50:20;15.77;;;3.47;;
37527;SDS011;23372;52.050;4.810;2023-02-18T14:55:24;11.00;;;2.97;;
37527;SDS011;23372;52.050;4.810;2023-02-18T14:57:53;12.13;;;2.70;;
37527;SDS011;23372;52.050;4.810;2023-02-18T15:00:25;19.70;;;4.37;;
37527;SDS011;23372;52.050;4.810;2023-02-18T15:02:56;22.43;;;3.20;;
37527;SDS011;23372;52.050;4.810;2023-02-18T15:05:24;15.13;;;3.03;;
37527;SDS011;23372;52.050;4.810;2023-02-18T15:10:42;13.10;;;2.77;;
37527;SDS011;23372;52.050;4.810;2023-02-18T15:13:12;15.60;;;3.07;;
37527;SDS011;23372;52.050;4.810;2023-02-18T15:15:39;20.03;;;3.57;;
37527;SDS011;23372;52.050;4.810;2023-02-18T15:18:10;20.60;;;4.20;;
37527;SDS011;23372;52.050;4.810;2023-02-18T15:20:47;13.20;;;3.80;;
37527;SDS011;23372;52.050;4.810;2023-02-18T15:23:14;15.93;;;3.83;;
37527;SDS011;23372;52.050;4.810;2023-02-18T15:25:43;18.70;;;2.83;;
37527;SDS011;23372;52.050;4.810;2023-02-18T15:28:28;19.37;;;3.30;;
37527;SDS011;23372;52.050;4.810;2023-02-18T15:30:58;19.53;;;4.60;;
37527;SDS011;23372;52.050;4.810;2023-02-18T15:33:26;17.50;;;3.40;;
37527;SDS011;23372;52.050;4.810;2023-02-18T15:35:59;16.07;;;3.23;;
37527;SDS011;23372;52.050;4.810;2023-02-18T15:38:26;12.87;;;3.33;;
37527;SDS011;23372;52.050;4.810;2023-02-18T15:40:52;20.30;;;4.27;;
37527;SDS011;23372;52.050;4.810;2023-02-18T15:43:20;13.63;;;3.03;;
37527;SDS011;23372;52.050;4.810;2023-02-18T15:45:48;15.00;;;3.83;;
37527;SDS011;23372;52.050;4.810;2023-02-18T15:50:55;25.33;;;5.57;;
37527;SDS011;23372;52.050;4.810;2023-02-18T15:53:21;23.30;;;4.03;;
37527;SDS011;23372;52.050;4.810;2023-02-18T15:55:49;25.07;;;4.43;;
37527;SDS011;23372;52.050;4.810;2023-02-18T15:58:30;22.23;;;4.17;;
37527;SDS011;23372;52.050;4.810;2023-02-18T16:00:58;20.87;;;3.30;;
37527;SDS011;23372;52.050;4.810;2023-02-18T16:03:29;13.20;;;2.90;;
37527;SDS011;23372;52.050;4.810;2023-02-18T16:06:15;20.87;;;4.63;;
37527;SDS011;23372;52.050;4.810;2023-02-18T16:08:59;21.87;;;3.83;;
37527;SDS011;23372;52.050;4.810;2023-02-18T16:11:44;14.93;;;3.87;;
37527;SDS011;23372;52.050;4.810;2023-02-18T16:14:22;19.63;;;4.57;;
37527;SDS011;23372;52.050;4.810;2023-02-18T16:17:08;19.77;;;4.13;;
37527;SDS011;23372;52.050;4.810;2023-02-18T16:24:58;21.87;;;3.87;;
37527;SDS011;23372;52.050;4.810;2023-02-18T16:27:36;19.20;;;4.07;;
37527;SDS011;23372;52.050;4.810;2023-02-18T16:30:19;24.87;;;4.87;;
37527;SDS011;23372;52.050;4.810;2023-02-18T16:32:49;14.53;;;5.03;;
37527;SDS011;23372;52.050;4.810;2023-02-18T16:35:16;14.40;;;3.73;;
37527;SDS011;23372;52.050;4.810;2023-02-18T16:37:41;21.87;;;3.73;;
37527;SDS011;23372;52.050;4.810;2023-02-18T16:42:40;17.17;;;3.73;;
37527;SDS011;23372;52.050;4.810;2023-02-18T16:45:07;16.13;;;3.67;;
37527;SDS011;23372;52.050;4.810;2023-02-18T16:47:36;28.27;;;4.03;;
37527;SDS011;23372;52.050;4.810;2023-02-18T16:50:03;24.20;;;4.13;;
37527;SDS011;23372;52.050;4.810;2023-02-18T16:52:29;27.97;;;5.23;;
37527;SDS011;23372;52.050;4.810;2023-02-18T16:54:54;19.80;;;4.10;;
37527;SDS011;23372;52.050;4.810;2023-02-18T16:57:20;17.60;;;4.27;;
37527;SDS011;23372;52.050;4.810;2023-02-18T16:59:45;26.80;;;4.37;;
37527;SDS011;23372;52.050;4.810;2023-02-18T17:02:18;25.63;;;5.10;;
37527;SDS011;23372;52.050;4.810;2023-02-18T17:04:46;26.30;;;5.10;;
37527;SDS011;23372;52.050;4.810;2023-02-18T17:07:11;25.83;;;5.17;;
37527;SDS011;23372;52.050;4.810;2023-02-18T17:09:37;26.50;;;5.27;;
37527;SDS011;23372;52.050;4.810;2023-02-18T17:12:03;23.47;;;4.77;;
37527;SDS011;23372;52.050;4.810;2023-02-18T17:14:29;22.93;;;5.43;;
37527;SDS011;23372;52.050;4.810;2023-02-18T17:16:54;23.53;;;5.70;;